Terminal Aerodrome Forecast
Issued by NWS

Home | Current Version | Previous Version | Text Only | Print | Product List | Glossary On
Versions: 1 2 3 4 5 6 7 8 9 10 11 12 13 14 15 16 17 18 19 20
000
FTUS43 KAPX 222016 AAB
TAFPLN
TAF AMD
KPLN 222016Z 2220/2318 08014G20KT 5SM -FZRASN BR OVC009
      TEMPO 2221/2301 3SM -FZRASN BR OVC005
     FM230600 06011G20KT 2SM -FZRASN BR OVC009
     FM230900 04010G19KT 1SM -SN BR OVC015
     FM231500 01012G20KT 3SM -SN BR OVC020=

USA.gov is the U.S. government's official web portal to all federal, state and local government web resources and services.